createdAt,value
2018-11-05T00:00:36.169Z,17.00
2018-11-05T00:03:05.140Z,15.40
2018-11-05T00:05:33.070Z,13.90
2018-11-05T00:08:00.930Z,13.30
2018-11-05T00:10:28.730Z,11.50
2018-11-05T00:12:56.538Z,8.33
2018-11-05T00:15:24.589Z,8.70
2018-11-05T00:17:52.435Z,9.13
2018-11-05T00:20:20.275Z,10.17
2018-11-05T00:22:52.318Z,12.87
2018-11-05T00:25:20.113Z,12.40
2018-11-05T00:27:47.916Z,12.40
2018-11-05T00:30:15.696Z,13.03
2018-11-05T00:32:43.850Z,13.77
2018-11-05T00:35:11.897Z,16.40
2018-11-05T00:37:39.785Z,17.40
2018-11-05T00:40:11.041Z,20.17
2018-11-05T00:42:39.013Z,20.67
2018-11-05T00:45:07.820Z,20.23
2018-11-05T00:47:35.656Z,20.60
2018-11-05T00:50:05.215Z,21.53
2018-11-05T00:52:32.974Z,20.93
2018-11-05T00:55:00.826Z,19.10
2018-11-05T00:57:28.602Z,21.40
2018-11-05T00:59:56.401Z,21.17
2018-11-05T01:02:24.157Z,20.97
2018-11-05T01:04:51.928Z,15.70
2018-11-05T01:07:19.684Z,14.77
2018-11-05T01:09:47.480Z,14.80
2018-11-05T01:12:15.257Z,15.73
2018-11-05T01:14:43.039Z,14.20
2018-11-05T01:17:10.804Z,14.77
2018-11-05T01:19:38.609Z,15.20
2018-11-05T01:22:06.401Z,15.30
2018-11-05T01:24:34.211Z,14.63
2018-11-05T01:27:02.034Z,15.43
2018-11-05T01:29:29.911Z,19.27
2018-11-05T01:31:57.664Z,18.93
2018-11-05T01:34:25.440Z,16.23
2018-11-05T01:36:53.313Z,18.93
2018-11-05T01:39:21.080Z,17.63
2018-11-05T01:41:48.852Z,17.13
2018-11-05T01:44:16.626Z,17.10
2018-11-05T01:46:44.409Z,15.10
2018-11-05T01:49:12.153Z,17.20
2018-11-05T01:51:39.936Z,20.77
2018-11-05T01:54:07.737Z,20.90
2018-11-05T01:56:35.529Z,23.70
2018-11-05T01:59:03.684Z,22.80
2018-11-05T02:01:31.476Z,24.83
2018-11-05T02:03:59.681Z,28.37
2018-11-05T02:06:27.444Z,27.03
2018-11-05T02:08:55.223Z,27.77
2018-11-05T02:11:23.045Z,29.30
2018-11-05T02:13:50.808Z,30.27
2018-11-05T02:16:18.608Z,30.90
2018-11-05T02:18:46.369Z,30.33
2018-11-05T02:21:14.388Z,31.50
2018-11-05T02:23:42.257Z,27.43
2018-11-05T02:26:10.029Z,32.07
2018-11-05T02:28:37.916Z,34.20
2018-11-05T02:31:05.765Z,30.57
2018-11-05T02:33:33.729Z,33.23
2018-11-05T02:36:01.517Z,35.63
2018-11-05T02:38:29.297Z,33.13
2018-11-05T02:40:57.068Z,35.47
2018-11-05T02:43:25.715Z,32.80
2018-11-05T02:45:53.473Z,34.57
2018-11-05T02:48:21.230Z,37.63
2018-11-05T02:50:49.023Z,39.50
2018-11-05T02:53:16.876Z,37.03
2018-11-05T02:55:44.641Z,39.10
2018-11-05T02:58:12.420Z,41.17
2018-11-05T03:00:40.234Z,40.93
2018-11-05T03:03:08.210Z,35.40
2018-11-05T03:05:36.013Z,39.53
2018-11-05T03:08:03.824Z,32.57
2018-11-05T03:10:31.617Z,38.57
2018-11-05T03:12:59.395Z,41.90
2018-11-05T03:15:27.149Z,38.53
2018-11-05T03:17:54.916Z,34.37
2018-11-05T03:20:22.694Z,35.47
2018-11-05T03:22:50.477Z,26.50
2018-11-05T03:25:18.237Z,28.87
2018-11-05T03:27:46.064Z,26.00
2018-11-05T03:30:15.324Z,20.30
2018-11-05T03:32:43.101Z,22.63
2018-11-05T03:35:11.997Z,19.33
2018-11-05T03:37:40.881Z,18.57
2018-11-05T03:40:09.524Z,15.43
2018-11-05T03:42:37.721Z,21.47
2018-11-05T03:45:06.385Z,15.47
2018-11-05T03:47:34.169Z,14.93
2018-11-05T03:50:01.939Z,14.73
2018-11-05T03:52:29.755Z,12.07
2018-11-05T03:54:57.557Z,14.50
2018-11-05T03:57:25.668Z,13.10
2018-11-05T03:59:53.613Z,14.57
2018-11-05T04:02:21.457Z,14.50
2018-11-05T04:04:49.233Z,13.97
2018-11-05T04:07:17.197Z,12.90
2018-11-05T04:09:44.989Z,12.17
2018-11-05T04:12:12.725Z,12.30
2018-11-05T04:14:40.533Z,12.83
2018-11-05T04:17:08.316Z,15.87
2018-11-05T04:19:36.089Z,15.77
2018-11-05T04:22:03.864Z,12.57
2018-11-05T04:24:31.629Z,11.47
2018-11-05T04:27:00.656Z,14.27
2018-11-05T04:29:28.444Z,17.23
2018-11-05T04:31:56.266Z,15.17
2018-11-05T04:34:24.137Z,14.57
2018-11-05T04:36:51.954Z,13.77
2018-11-05T04:39:19.793Z,11.53
2018-11-05T04:41:47.629Z,11.87
2018-11-05T04:44:15.429Z,12.93
2018-11-05T04:46:43.172Z,11.27
2018-11-05T04:49:11.484Z,13.93
2018-11-05T04:51:39.317Z,15.00
2018-11-05T04:54:07.434Z,15.37
2018-11-05T04:56:35.253Z,15.57
2018-11-05T04:59:03.049Z,15.00
2018-11-05T05:01:31.049Z,14.60
2018-11-05T05:03:59.569Z,17.30
2018-11-05T05:06:27.396Z,17.23
2018-11-05T05:08:55.285Z,17.80
2018-11-05T05:11:23.183Z,21.33
2018-11-05T05:13:51.299Z,63.47
2018-11-05T05:16:19.158Z,40.10
2018-11-05T05:18:47.252Z,55.63
2018-11-05T05:21:15.041Z,57.70
2018-11-05T05:23:42.841Z,54.53
2018-11-05T05:26:10.641Z,31.43
2018-11-05T05:28:38.432Z,27.70
2018-11-05T05:31:06.692Z,30.37
2018-11-05T05:33:34.585Z,37.80
2018-11-05T05:36:02.374Z,37.80
2018-11-05T05:38:30.195Z,34.43
2018-11-05T05:40:58.083Z,27.37
2018-11-05T05:43:25.941Z,22.00
2018-11-05T05:45:53.787Z,21.57
2018-11-05T05:48:21.728Z,24.80
2018-11-05T05:50:49.554Z,24.60
2018-11-05T05:53:17.309Z,25.27
2018-11-05T05:55:45.309Z,25.73
2018-11-05T05:58:13.629Z,20.17
2018-11-05T06:00:41.518Z,19.80
2018-11-05T06:03:09.333Z,18.53
2018-11-05T06:05:37.213Z,20.30
2018-11-05T06:08:05.306Z,21.07
2018-11-05T06:10:33.121Z,17.93
2018-11-05T06:13:00.947Z,17.13
2018-11-05T06:15:28.857Z,19.83
2018-11-05T06:17:56.692Z,18.87
2018-11-05T06:20:24.559Z,21.20
2018-11-05T06:22:52.313Z,19.60
2018-11-05T06:25:20.141Z,19.63
2018-11-05T06:27:47.921Z,24.13
2018-11-05T06:30:18.431Z,23.43
2018-11-05T06:32:47.026Z,21.53
2018-11-05T06:35:15.411Z,22.90
2018-11-05T06:37:44.049Z,23.83
2018-11-05T06:40:13.657Z,23.60
2018-11-05T06:42:41.965Z,22.60
2018-11-05T06:45:12.012Z,25.17
2018-11-05T06:47:41.026Z,25.37
2018-11-05T06:50:16.948Z,24.17
2018-11-05T06:52:45.105Z,23.23
2018-11-05T06:55:13.592Z,22.87
2018-11-05T06:57:41.588Z,24.93
2018-11-05T07:00:12.033Z,24.47
2018-11-05T07:02:39.992Z,23.40
2018-11-05T07:05:07.733Z,24.07
2018-11-05T07:07:35.593Z,22.63
2018-11-05T07:10:03.847Z,28.90
2018-11-05T07:12:31.708Z,25.60
2018-11-05T07:14:59.493Z,24.93
2018-11-05T07:17:27.341Z,23.03
2018-11-05T07:19:55.453Z,27.90
2018-11-05T07:22:23.331Z,23.93
2018-11-05T07:24:51.128Z,24.73
2018-11-05T07:27:18.977Z,22.80
2018-11-05T07:29:46.845Z,24.97
2018-11-05T07:32:14.669Z,26.33
2018-11-05T07:34:42.446Z,26.10
2018-11-05T07:37:10.327Z,22.47
2018-11-05T07:39:38.084Z,31.07
2018-11-05T07:42:05.892Z,28.07
2018-11-05T07:44:33.982Z,30.37
2018-11-05T07:47:02.054Z,23.07
2018-11-05T07:49:29.859Z,26.33
2018-11-05T07:51:57.761Z,28.20
2018-11-05T07:54:25.617Z,24.43
2018-11-05T07:56:53.619Z,22.93
2018-11-05T07:59:21.377Z,21.20
2018-11-05T08:01:49.289Z,23.80
2018-11-05T08:04:17.057Z,19.90
2018-11-05T08:06:44.812Z,22.43
2018-11-05T08:09:12.792Z,19.60
2018-11-05T08:11:40.956Z,18.13
2018-11-05T08:14:09.882Z,15.90
2018-11-05T08:16:37.789Z,17.23
2018-11-05T08:19:06.081Z,16.83
2018-11-05T08:21:33.853Z,17.07
2018-11-05T08:24:01.595Z,15.07
2018-11-05T08:26:29.395Z,17.73
2018-11-05T08:28:57.202Z,18.00
2018-11-05T08:31:25.164Z,16.20
2018-11-05T08:33:52.939Z,20.23
2018-11-05T08:36:20.741Z,23.20
2018-11-05T08:38:48.488Z,20.67
2018-11-05T08:41:16.252Z,18.40
2018-11-05T08:43:44.560Z,19.97
2018-11-05T08:46:12.350Z,17.87
2018-11-05T08:48:40.169Z,19.97
2018-11-05T08:51:08.123Z,22.77
2018-11-05T08:53:35.905Z,23.77
2018-11-05T08:56:04.050Z,20.00
2018-11-05T08:58:32.213Z,22.17
2018-11-05T09:01:05.520Z,21.77
2018-11-05T09:03:33.457Z,21.10
2018-11-05T09:06:01.275Z,19.30
2018-11-05T09:08:29.121Z,19.33
2018-11-05T09:10:57.268Z,18.67
2018-11-05T09:13:24.875Z,21.03
2018-11-05T09:15:52.657Z,19.83
2018-11-05T09:18:20.409Z,20.33
2018-11-05T09:20:48.367Z,20.53
2018-11-05T09:23:16.080Z,21.23
2018-11-05T09:25:43.832Z,18.50
2018-11-05T09:28:11.654Z,21.43
2018-11-05T09:30:39.425Z,18.47
2018-11-05T09:33:07.237Z,17.03
2018-11-05T09:35:35.041Z,15.23
2018-11-05T09:38:02.827Z,15.83
2018-11-05T09:40:30.611Z,15.20
2018-11-05T09:42:58.762Z,15.78
2018-11-05T09:45:27.785Z,16.55
2018-11-05T09:47:55.651Z,12.07
2018-11-05T09:50:23.562Z,11.00
2018-11-05T09:52:51.349Z,10.88
2018-11-05T09:55:19.172Z,12.10
2018-11-05T09:57:46.928Z,10.20
2018-11-05T10:00:18.166Z,11.40
2018-11-05T10:02:51.715Z,11.83
2018-11-05T10:05:19.617Z,10.95
2018-11-05T10:07:47.255Z,20.35
2018-11-05T10:10:16.588Z,21.20
2018-11-05T10:12:44.361Z,21.75
2018-11-05T10:15:13.033Z,20.48
2018-11-05T10:17:40.980Z,19.70
2018-11-05T10:20:12.569Z,20.80
2018-11-05T10:22:40.477Z,21.23
2018-11-05T10:25:09.905Z,20.20
2018-11-05T10:27:37.925Z,23.05
2018-11-05T10:30:09.118Z,22.15
2018-11-05T10:32:36.968Z,22.62
2018-11-05T10:35:04.838Z,20.05
2018-11-05T10:37:32.660Z,22.22
2018-11-05T10:40:00.486Z,21.50
2018-11-05T10:42:28.285Z,19.42
2018-11-05T10:44:56.262Z,17.90
2018-11-05T10:47:24.055Z,18.57
2018-11-05T10:49:51.844Z,18.45
2018-11-05T10:52:19.656Z,18.90
2018-11-05T10:54:47.459Z,18.30
2018-11-05T10:57:15.213Z,20.27
2018-11-05T10:59:42.997Z,18.47
2018-11-05T11:04:22.046Z,18.53
2018-11-05T11:06:49.795Z,16.20
2018-11-05T11:09:17.569Z,17.40
2018-11-05T11:11:45.323Z,17.40
2018-11-05T11:14:13.108Z,17.33
2018-11-05T11:16:40.904Z,17.13
2018-11-05T11:19:08.691Z,17.83
2018-11-05T11:21:36.512Z,19.07
2018-11-05T11:24:04.686Z,17.70
2018-11-05T11:26:32.476Z,16.50
2018-11-05T11:29:00.319Z,17.10
2018-11-05T11:31:28.136Z,16.83
2018-11-05T11:33:55.977Z,16.97
2018-11-05T11:36:23.760Z,18.27
2018-11-05T11:38:51.541Z,15.93
2018-11-05T11:41:19.341Z,15.60
2018-11-05T11:43:47.134Z,16.07
2018-11-05T11:46:15.041Z,16.03
2018-11-05T11:48:42.873Z,16.57
2018-11-05T11:51:10.665Z,15.50
2018-11-05T11:53:38.460Z,17.93
2018-11-05T11:56:06.297Z,15.43
2018-11-05T11:58:34.090Z,16.57
2018-11-05T12:01:01.877Z,16.03
2018-11-05T12:03:29.637Z,16.80
2018-11-05T12:05:57.449Z,16.67
2018-11-05T12:08:25.283Z,17.73
2018-11-05T12:10:53.080Z,17.90
2018-11-05T12:13:20.862Z,21.20
2018-11-05T12:15:48.645Z,18.97
2018-11-05T12:18:16.493Z,20.63
2018-11-05T12:20:44.303Z,19.10
2018-11-05T12:23:12.052Z,18.03
2018-11-05T12:25:39.953Z,20.23
2018-11-05T12:28:07.789Z,21.17
2018-11-05T12:30:36.129Z,20.13
2018-11-05T12:33:04.071Z,20.67
2018-11-05T12:35:31.861Z,22.23
2018-11-05T12:37:59.716Z,19.87
2018-11-05T12:40:27.695Z,24.50
2018-11-05T12:42:55.481Z,22.03
2018-11-05T12:45:23.268Z,22.03
2018-11-05T12:47:51.037Z,24.40
2018-11-05T12:50:22.925Z,25.97
2018-11-05T12:52:51.781Z,22.63
2018-11-05T12:55:19.549Z,22.63
2018-11-05T12:57:47.645Z,21.80
2018-11-05T13:00:18.346Z,21.23
2018-11-05T13:02:51.756Z,23.33
2018-11-05T13:05:19.562Z,24.47
2018-11-05T13:07:47.657Z,21.27
2018-11-05T13:10:15.435Z,21.03
2018-11-05T13:12:43.223Z,21.50
2018-11-05T13:15:11.518Z,21.93
2018-11-05T13:17:39.886Z,22.43
2018-11-05T13:20:11.762Z,22.27
2018-11-05T13:22:39.791Z,21.20
2018-11-05T13:25:07.623Z,22.80
2018-11-05T13:27:35.431Z,23.20
2018-11-05T13:30:03.733Z,23.60
2018-11-05T13:32:31.537Z,22.33
2018-11-05T13:34:59.556Z,22.60
2018-11-05T13:37:27.670Z,25.50
2018-11-05T13:39:55.297Z,21.10
2018-11-05T13:42:23.114Z,27.90
2018-11-05T13:44:50.972Z,29.30
2018-11-05T13:47:19.489Z,25.47
2018-11-05T13:49:46.694Z,21.63
2018-11-05T13:52:14.584Z,22.50
2018-11-05T13:54:42.367Z,24.27
2018-11-05T13:57:10.077Z,21.57
2018-11-05T13:59:37.908Z,21.60
2018-11-05T14:02:05.758Z,19.60
2018-11-05T14:04:33.611Z,20.00
2018-11-05T14:07:01.397Z,21.33
2018-11-05T14:09:29.475Z,23.73
2018-11-05T14:11:57.316Z,23.13
2018-11-05T14:14:25.097Z,22.20
2018-11-05T14:16:52.941Z,24.37
2018-11-05T14:19:20.852Z,23.27
2018-11-05T14:21:48.732Z,24.57
2018-11-05T14:24:16.520Z,22.43
2018-11-05T14:26:44.337Z,21.40
2018-11-05T14:29:12.517Z,21.33
2018-11-05T14:31:39.953Z,21.73
2018-11-05T14:34:09.005Z,19.00
2018-11-05T14:36:36.995Z,20.87
2018-11-05T14:39:08.276Z,19.43
2018-11-05T14:41:36.065Z,20.53
2018-11-05T14:44:03.892Z,18.73
2018-11-05T14:46:31.676Z,20.90
2018-11-05T14:48:59.584Z,21.10
2018-11-05T14:51:27.401Z,23.10
2018-11-05T14:53:55.157Z,26.30
2018-11-05T14:56:22.937Z,22.73
2018-11-05T14:58:50.713Z,25.20
2018-11-05T15:01:18.502Z,23.23
2018-11-05T15:03:46.265Z,21.90
2018-11-05T15:06:14.089Z,20.03
2018-11-05T15:08:41.912Z,19.93
2018-11-05T15:11:09.689Z,21.97
2018-11-05T15:13:37.510Z,22.90
2018-11-05T15:16:05.525Z,22.63
2018-11-05T15:18:33.363Z,24.13
2018-11-05T15:21:01.254Z,24.30
2018-11-05T15:23:29.159Z,26.57
2018-11-05T15:25:57.009Z,21.60
2018-11-05T15:28:24.805Z,19.17
2018-11-05T15:30:52.593Z,19.83
2018-11-05T15:33:20.833Z,22.53
2018-11-05T15:35:49.246Z,44.63
2018-11-05T15:38:17.010Z,36.83
2018-11-05T15:40:44.793Z,26.87
2018-11-05T15:43:12.655Z,21.00
2018-11-05T15:45:40.470Z,24.53
2018-11-05T15:48:08.273Z,22.97
2018-11-05T15:50:36.049Z,22.83
2018-11-05T15:53:04.242Z,21.30
2018-11-05T15:55:31.857Z,24.10
2018-11-05T15:57:59.882Z,25.97
2018-11-05T16:00:27.673Z,24.63
2018-11-05T16:02:57.828Z,46.53
2018-11-05T16:05:25.666Z,44.57
2018-11-05T16:07:53.461Z,45.63
2018-11-05T16:10:21.309Z,41.90
2018-11-05T16:12:49.209Z,32.13
2018-11-05T16:15:16.973Z,29.67
2018-11-05T16:17:44.774Z,28.20
2018-11-05T16:20:14.070Z,25.97
2018-11-05T16:22:42.081Z,26.33
2018-11-05T16:25:09.974Z,25.13
2018-11-05T16:27:37.813Z,35.37
2018-11-05T16:30:08.227Z,44.83
2018-11-05T16:32:35.977Z,45.73
2018-11-05T16:35:04.094Z,48.23
2018-11-05T16:37:31.809Z,43.93
2018-11-05T16:39:59.813Z,42.60
2018-11-05T16:42:27.608Z,41.10
2018-11-05T16:44:55.489Z,39.23
2018-11-05T16:47:23.324Z,47.80
2018-11-05T16:49:51.089Z,45.60
2018-11-05T16:52:18.857Z,48.37
2018-11-05T16:54:46.679Z,55.47
2018-11-05T16:57:14.474Z,61.30
2018-11-05T16:59:42.310Z,66.00
2018-11-05T17:02:13.357Z,74.43
2018-11-05T17:04:41.329Z,83.27
2018-11-05T17:07:09.375Z,85.10
2018-11-05T17:09:37.148Z,89.63
2018-11-05T17:12:05.489Z,83.03
2018-11-05T17:14:33.249Z,95.37
2018-11-05T17:17:01.068Z,74.67
2018-11-05T17:19:29.218Z,68.00
2018-11-05T17:21:57.025Z,59.30
2018-11-05T17:24:24.833Z,55.67
2018-11-05T17:26:52.577Z,53.83
2018-11-05T17:29:20.383Z,62.10
2018-11-05T17:31:48.215Z,75.00
2018-11-05T17:34:16.054Z,77.60
2018-11-05T17:36:43.984Z,70.77
2018-11-05T17:39:12.790Z,63.50
2018-11-05T17:41:40.981Z,60.63
2018-11-05T17:44:10.954Z,57.53
2018-11-05T17:46:38.819Z,61.90
2018-11-05T17:49:07.740Z,63.53
2018-11-05T17:51:35.657Z,73.17
2018-11-05T17:54:03.532Z,71.53
2018-11-05T17:56:31.406Z,66.70
2018-11-05T17:58:59.386Z,62.07
2018-11-05T18:01:27.197Z,60.77
2018-11-05T18:03:55.044Z,58.20
2018-11-05T18:06:22.849Z,53.07
2018-11-05T18:08:50.726Z,48.50
2018-11-05T18:11:18.769Z,57.57
2018-11-05T18:13:46.532Z,61.70
2018-11-05T18:16:14.289Z,58.43
2018-11-05T18:18:42.339Z,55.93
2018-11-05T18:21:10.165Z,59.77
2018-11-05T18:23:38.083Z,54.47
2018-11-05T18:26:05.877Z,64.03
2018-11-05T18:28:33.690Z,59.73
2018-11-05T18:31:01.569Z,54.93
2018-11-05T18:33:29.299Z,49.70
2018-11-05T18:35:57.064Z,44.43
2018-11-05T18:38:24.849Z,39.23
2018-11-05T18:40:52.641Z,40.70
2018-11-05T18:43:20.452Z,45.67
2018-11-05T18:45:48.384Z,38.40
2018-11-05T18:48:16.713Z,31.40
2018-11-05T18:50:44.513Z,27.20
2018-11-05T18:53:12.262Z,32.73
2018-11-05T18:55:40.068Z,26.93
2018-11-05T18:58:07.909Z,18.40
2018-11-05T19:00:35.728Z,16.90
2018-11-05T19:03:03.672Z,11.70
2018-11-05T19:05:31.522Z,12.07
2018-11-05T19:07:59.503Z,23.90
2018-11-05T19:10:27.300Z,32.60
2018-11-05T19:12:55.057Z,36.40
2018-11-05T19:15:22.829Z,37.63
2018-11-05T19:17:50.848Z,40.13
2018-11-05T19:20:18.736Z,39.60
2018-11-05T19:22:46.738Z,36.83
2018-11-05T19:25:15.142Z,34.47
2018-11-05T19:27:43.677Z,26.23
2018-11-05T19:30:26.489Z,29.07
2018-11-05T19:32:54.323Z,23.83
2018-11-05T19:35:22.190Z,32.40
2018-11-05T19:37:50.061Z,30.50
2018-11-05T19:40:18.409Z,16.30
2018-11-05T19:42:46.982Z,11.20
2018-11-05T19:45:16.408Z,5.77
2018-11-05T19:47:44.347Z,5.30
2018-11-05T19:50:15.482Z,7.83
2018-11-05T19:52:44.001Z,6.40
2018-11-05T19:55:12.858Z,5.87
2018-11-05T19:57:41.523Z,8.40
2018-11-05T20:00:15.380Z,7.03
2018-11-05T20:02:43.447Z,5.57
2018-11-05T20:05:11.457Z,5.87
2018-11-05T20:07:39.324Z,5.77
2018-11-05T20:10:07.744Z,9.13
2018-11-05T20:12:35.591Z,7.53
2018-11-05T20:15:03.562Z,5.57
2018-11-05T20:17:31.910Z,4.73
2018-11-05T20:19:59.997Z,5.37
2018-11-05T20:22:27.883Z,5.20
2018-11-05T20:24:55.590Z,5.63
2018-11-05T20:27:23.409Z,5.27
2018-11-05T20:29:51.208Z,6.10
2018-11-05T20:32:19.477Z,3.83
2018-11-05T20:34:46.809Z,4.20
2018-11-05T20:37:14.593Z,6.47
2018-11-05T20:39:42.444Z,7.83
2018-11-05T20:42:10.191Z,7.03
2018-11-05T20:44:37.989Z,3.77
2018-11-05T20:47:06.550Z,5.87
2018-11-05T20:49:34.380Z,6.67
2018-11-05T20:52:02.204Z,5.87
2018-11-05T20:54:30.093Z,5.33
2018-11-05T20:56:57.913Z,5.40
2018-11-05T20:59:25.696Z,4.53
2018-11-05T21:01:53.776Z,5.57
2018-11-05T21:04:21.549Z,6.53
2018-11-05T21:06:49.300Z,6.13
2018-11-05T21:09:17.118Z,4.03
2018-11-05T21:11:44.893Z,5.20
2018-11-05T21:14:12.674Z,5.70
2018-11-05T21:16:40.524Z,4.10
2018-11-05T21:19:08.271Z,5.77
2018-11-05T21:21:36.168Z,3.73
2018-11-05T21:24:04.131Z,3.97
2018-11-05T21:26:32.216Z,4.50
2018-11-05T21:29:03.653Z,5.30
2018-11-05T21:31:31.817Z,3.50
2018-11-05T21:36:27.552Z,4.53
2018-11-05T21:38:55.332Z,6.90
2018-11-05T21:41:23.152Z,2.73
2018-11-05T21:43:50.961Z,3.50
2018-11-05T21:46:18.828Z,4.57
2018-11-05T21:48:46.625Z,4.30
2018-11-05T21:51:14.617Z,3.97
2018-11-05T21:53:42.480Z,3.23
2018-11-05T21:56:10.329Z,4.77
2018-11-05T21:58:38.179Z,3.70
2018-11-05T22:01:06.049Z,3.93
2018-11-05T22:03:34.418Z,3.93
2018-11-05T22:06:02.236Z,3.43
2018-11-05T22:08:30.126Z,4.63
2018-11-05T22:10:57.928Z,4.50
2018-11-05T22:13:25.725Z,3.80
2018-11-05T22:15:53.595Z,3.87
2018-11-05T22:18:21.358Z,3.50
2018-11-05T22:20:49.177Z,3.00
2018-11-05T22:23:16.968Z,4.40
2018-11-05T22:25:44.788Z,3.57
2018-11-05T22:28:12.660Z,3.30
2018-11-05T22:30:40.541Z,2.70
2018-11-05T22:33:08.740Z,2.93
2018-11-05T22:35:36.699Z,3.73
2018-11-05T22:38:04.752Z,4.87
2018-11-05T22:40:32.712Z,3.70
2018-11-05T22:43:00.725Z,6.30
2018-11-05T22:45:28.528Z,3.20
2018-11-05T22:47:56.719Z,3.47
2018-11-05T22:50:24.683Z,3.87
2018-11-05T22:52:52.505Z,3.50
2018-11-05T22:55:20.325Z,3.50
2018-11-05T22:57:48.211Z,7.17
2018-11-05T23:00:22.443Z,4.13
2018-11-05T23:02:55.923Z,5.43
2018-11-05T23:05:24.325Z,3.03
2018-11-05T23:07:53.228Z,3.67
2018-11-05T23:10:21.457Z,3.60
2018-11-05T23:12:49.321Z,3.57
2018-11-05T23:15:17.548Z,4.80
2018-11-05T23:17:45.646Z,4.80
2018-11-05T23:20:13.458Z,3.43
2018-11-05T23:22:41.944Z,3.17
2018-11-05T23:25:09.890Z,4.90
2018-11-05T23:27:37.777Z,3.10
2018-11-05T23:30:07.870Z,3.43
2018-11-05T23:32:35.927Z,2.57
2018-11-05T23:35:03.829Z,5.00
2018-11-05T23:37:31.713Z,3.27
2018-11-05T23:39:59.572Z,5.60
2018-11-05T23:42:27.577Z,2.93
2018-11-05T23:44:55.392Z,2.67
2018-11-05T23:47:26.839Z,3.50
2018-11-05T23:49:56.492Z,4.27
2018-11-05T23:52:25.182Z,3.10
2018-11-05T23:54:53.069Z,2.70
2018-11-05T23:57:21.317Z,3.20
2018-11-05T23:59:49.173Z,3.77
